Terminal Aerodrome Forecast
Issued by NWS

Home | Current Version | Previous Version | Text Only | Print | Product List | Glossary On
Versions: 1 2 3 4 5 6 7 8 9 10 11 12 13 14 15 16 17 18 19 20 21 22 23 24 25 26 27 28 29 30 31 32 33 34 35 36 37 38 39 40 41 42 43 44
000
FTUS41 KALY 221124
TAFPSF
TAF
KPSF 221124Z 2212/2312 VRB05KT P6SM BKN020
      TEMPO 2212/2214 SCT020
     FM221400 30004KT P6SM SCT025 BKN035
     FM230200 00000KT 6SM -DZ BR BKN015
     FM230500 14004KT 4SM -DZ BR BKN010=

USA.gov is the U.S. government's official web portal to all federal, state and local government web resources and services.